sensor_id;sensor_type;location;lat;lon;timestamp;temperature;humidity
37050;DHT22;22958;51.232;6.826;2022-07-10T00:00:34;14.90;99.90
37050;DHT22;22958;51.232;6.826;2022-07-10T00:03:01;14.90;99.90
37050;DHT22;22958;51.232;6.826;2022-07-10T00:05:27;14.90;99.90
37050;DHT22;22958;51.232;6.826;2022-07-10T00:07:53;14.90;99.90
37050;DHT22;22958;51.232;6.826;2022-07-10T00:10:21;14.90;99.90
37050;DHT22;22958;51.232;6.826;2022-07-10T00:12:48;14.90;99.90
37050;DHT22;22958;51.232;6.826;2022-07-10T00:15:15;14.90;99.90
37050;DHT22;22958;51.232;6.826;2022-07-10T00:17:41;14.90;99.90
37050;DHT22;22958;51.232;6.826;2022-07-10T00:20:08;14.90;99.90
37050;DHT22;22958;51.232;6.826;2022-07-10T00:22:34;14.90;99.90
37050;DHT22;22958;51.232;6.826;2022-07-10T00:25:07;14.80;99.90
37050;DHT22;22958;51.232;6.826;2022-07-10T00:27:34;14.80;99.90
37050;DHT22;22958;51.232;6.826;2022-07-10T00:29:59;14.80;99.90
37050;DHT22;22958;51.232;6.826;2022-07-10T00:32:25;14.80;99.90
37050;DHT22;22958;51.232;6.826;2022-07-10T00:34:51;14.80;99.90
37050;DHT22;22958;51.232;6.826;2022-07-10T00:37:17;14.80;99.90
37050;DHT22;22958;51.232;6.826;2022-07-10T00:39:42;14.80;99.90
37050;DHT22;22958;51.232;6.826;2022-07-10T00:42:13;14.90;99.90
37050;DHT22;22958;51.232;6.826;2022-07-10T00:44:40;14.80;99.90
37050;DHT22;22958;51.232;6.826;2022-07-10T00:47:06;14.80;99.90
37050;DHT22;22958;51.232;6.826;2022-07-10T00:49:33;14.80;99.90
37050;DHT22;22958;51.232;6.826;2022-07-10T00:52:00;14.90;99.90
37050;DHT22;22958;51.232;6.826;2022-07-10T00:54:27;14.90;99.90
37050;DHT22;22958;51.232;6.826;2022-07-10T00:56:53;15.00;99.90
37050;DHT22;22958;51.232;6.826;2022-07-10T00:59:19;15.00;99.90
37050;DHT22;22958;51.232;6.826;2022-07-10T01:01:45;15.00;99.90
37050;DHT22;22958;51.232;6.826;2022-07-10T01:04:11;15.00;99.90
37050;DHT22;22958;51.232;6.826;2022-07-10T01:06:36;15.00;99.90
37050;DHT22;22958;51.232;6.826;2022-07-10T01:09:02;15.00;99.90
37050;DHT22;22958;51.232;6.826;2022-07-10T01:11:28;15.00;99.90
37050;DHT22;22958;51.232;6.826;2022-07-10T01:13:54;15.00;99.90
37050;DHT22;22958;51.232;6.826;2022-07-10T01:16:20;15.10;99.90
37050;DHT22;22958;51.232;6.826;2022-07-10T01:18:47;15.10;99.90
37050;DHT22;22958;51.232;6.826;2022-07-10T01:21:30;15.10;99.90
37050;DHT22;22958;51.232;6.826;2022-07-10T01:23:56;15.10;99.90
37050;DHT22;22958;51.232;6.826;2022-07-10T01:26:22;15.00;99.90
37050;DHT22;22958;51.232;6.826;2022-07-10T01:28:50;15.10;99.90
37050;DHT22;22958;51.232;6.826;2022-07-10T01:31:18;15.00;99.90
37050;DHT22;22958;51.232;6.826;2022-07-10T01:33:43;15.00;99.90
37050;DHT22;22958;51.232;6.826;2022-07-10T01:36:10;15.00;99.90
37050;DHT22;22958;51.232;6.826;2022-07-10T01:38:36;15.00;99.90
37050;DHT22;22958;51.232;6.826;2022-07-10T01:41:01;15.00;99.90
37050;DHT22;22958;51.232;6.826;2022-07-10T01:43:27;15.00;99.90
37050;DHT22;22958;51.232;6.826;2022-07-10T01:45:52;15.00;99.90
37050;DHT22;22958;51.232;6.826;2022-07-10T01:48:17;15.00;99.90
37050;DHT22;22958;51.232;6.826;2022-07-10T01:50:43;15.00;99.90
37050;DHT22;22958;51.232;6.826;2022-07-10T01:53:09;15.00;99.90
37050;DHT22;22958;51.232;6.826;2022-07-10T01:55:34;15.00;99.90
37050;DHT22;22958;51.232;6.826;2022-07-10T01:58:00;14.90;99.90
37050;DHT22;22958;51.232;6.826;2022-07-10T02:00:25;15.00;99.90
37050;DHT22;22958;51.232;6.826;2022-07-10T02:02:51;14.90;99.90
37050;DHT22;22958;51.232;6.826;2022-07-10T02:05:35;14.80;99.90
37050;DHT22;22958;51.232;6.826;2022-07-10T02:08:00;14.80;99.90
37050;DHT22;22958;51.232;6.826;2022-07-10T02:10:28;14.70;99.90
37050;DHT22;22958;51.232;6.826;2022-07-10T02:12:54;14.70;99.90
37050;DHT22;22958;51.232;6.826;2022-07-10T02:15:21;14.60;99.90
37050;DHT22;22958;51.232;6.826;2022-07-10T02:17:47;14.60;99.90
37050;DHT22;22958;51.232;6.826;2022-07-10T02:20:13;14.60;99.90
37050;DHT22;22958;51.232;6.826;2022-07-10T02:22:38;14.50;99.90
37050;DHT22;22958;51.232;6.826;2022-07-10T02:25:04;14.50;99.90
37050;DHT22;22958;51.232;6.826;2022-07-10T02:27:30;14.50;99.90
37050;DHT22;22958;51.232;6.826;2022-07-10T02:29:55;14.50;99.90
37050;DHT22;22958;51.232;6.826;2022-07-10T02:32:21;14.50;99.90
37050;DHT22;22958;51.232;6.826;2022-07-10T02:34:47;14.40;99.90
37050;DHT22;22958;51.232;6.826;2022-07-10T02:37:12;14.40;99.90
37050;DHT22;22958;51.232;6.826;2022-07-10T02:39:38;14.40;99.90
37050;DHT22;22958;51.232;6.826;2022-07-10T02:42:04;14.30;99.90
37050;DHT22;22958;51.232;6.826;2022-07-10T02:44:29;14.40;99.90
37050;DHT22;22958;51.232;6.826;2022-07-10T02:46:55;14.30;99.90
37050;DHT22;22958;51.232;6.826;2022-07-10T02:49:21;14.30;99.90
37050;DHT22;22958;51.232;6.826;2022-07-10T02:51:46;14.30;99.90
37050;DHT22;22958;51.232;6.826;2022-07-10T02:54:12;14.30;99.90
37050;DHT22;22958;51.232;6.826;2022-07-10T02:56:37;14.40;99.90
37050;DHT22;22958;51.232;6.826;2022-07-10T02:59:03;14.40;99.90
37050;DHT22;22958;51.232;6.826;2022-07-10T03:01:28;14.40;99.90
37050;DHT22;22958;51.232;6.826;2022-07-10T03:03:54;14.40;99.90
37050;DHT22;22958;51.232;6.826;2022-07-10T03:06:19;14.40;99.90
37050;DHT22;22958;51.232;6.826;2022-07-10T03:08:45;14.40;99.90
37050;DHT22;22958;51.232;6.826;2022-07-10T03:11:10;14.40;99.90
37050;DHT22;22958;51.232;6.826;2022-07-10T03:13:36;14.30;99.90
37050;DHT22;22958;51.232;6.826;2022-07-10T03:16:01;14.30;99.90
37050;DHT22;22958;51.232;6.826;2022-07-10T03:18:28;14.20;99.90
37050;DHT22;22958;51.232;6.826;2022-07-10T03:20:53;14.20;99.90
37050;DHT22;22958;51.232;6.826;2022-07-10T03:23:19;14.20;99.90
37050;DHT22;22958;51.232;6.826;2022-07-10T03:25:45;14.20;99.90
37050;DHT22;22958;51.232;6.826;2022-07-10T03:28:10;14.30;99.90
37050;DHT22;22958;51.232;6.826;2022-07-10T03:30:36;14.20;99.90
37050;DHT22;22958;51.232;6.826;2022-07-10T03:33:01;14.20;99.90
37050;DHT22;22958;51.232;6.826;2022-07-10T03:35:29;14.30;99.90
37050;DHT22;22958;51.232;6.826;2022-07-10T03:37:56;14.30;99.90
37050;DHT22;22958;51.232;6.826;2022-07-10T03:40:22;14.20;99.90
37050;DHT22;22958;51.232;6.826;2022-07-10T03:42:48;14.20;99.90
37050;DHT22;22958;51.232;6.826;2022-07-10T03:45:13;14.10;99.90
37050;DHT22;22958;51.232;6.826;2022-07-10T03:47:39;14.10;99.90
37050;DHT22;22958;51.232;6.826;2022-07-10T03:50:05;14.10;99.90
37050;DHT22;22958;51.232;6.826;2022-07-10T03:52:30;14.00;99.90
37050;DHT22;22958;51.232;6.826;2022-07-10T03:54:56;14.00;99.90
37050;DHT22;22958;51.232;6.826;2022-07-10T03:57:22;14.00;99.90
37050;DHT22;22958;51.232;6.826;2022-07-10T04:00:14;14.00;99.90
37050;DHT22;22958;51.232;6.826;2022-07-10T04:02:39;14.00;99.90
37050;DHT22;22958;51.232;6.826;2022-07-10T04:05:09;13.90;99.90
37050;DHT22;22958;51.232;6.826;2022-07-10T04:07:37;13.90;99.90
37050;DHT22;22958;51.232;6.826;2022-07-10T04:10:04;13.90;99.90
37050;DHT22;22958;51.232;6.826;2022-07-10T04:12:29;13.90;99.90
37050;DHT22;22958;51.232;6.826;2022-07-10T04:14:55;13.90;99.90
37050;DHT22;22958;51.232;6.826;2022-07-10T04:17:21;13.90;99.90
37050;DHT22;22958;51.232;6.826;2022-07-10T04:19:47;13.90;99.90
37050;DHT22;22958;51.232;6.826;2022-07-10T04:22:12;13.90;99.90
37050;DHT22;22958;51.232;6.826;2022-07-10T04:24:38;13.90;99.90
37050;DHT22;22958;51.232;6.826;2022-07-10T04:27:04;13.90;99.90
37050;DHT22;22958;51.232;6.826;2022-07-10T04:29:29;13.90;99.90
37050;DHT22;22958;51.232;6.826;2022-07-10T04:31:55;13.90;99.90
37050;DHT22;22958;51.232;6.826;2022-07-10T04:34:21;14.00;99.90
37050;DHT22;22958;51.232;6.826;2022-07-10T04:36:46;14.00;99.90
37050;DHT22;22958;51.232;6.826;2022-07-10T04:39:11;14.00;99.90
37050;DHT22;22958;51.232;6.826;2022-07-10T04:41:37;13.90;99.90
37050;DHT22;22958;51.232;6.826;2022-07-10T04:44:03;13.90;99.90
37050;DHT22;22958;51.232;6.826;2022-07-10T04:46:29;14.00;99.90
37050;DHT22;22958;51.232;6.826;2022-07-10T04:48:54;14.00;99.90
37050;DHT22;22958;51.232;6.826;2022-07-10T04:51:20;14.00;99.90
37050;DHT22;22958;51.232;6.826;2022-07-10T04:53:45;14.00;99.90
37050;DHT22;22958;51.232;6.826;2022-07-10T04:56:11;14.00;99.90
37050;DHT22;22958;51.232;6.826;2022-07-10T04:58:36;14.10;99.90
37050;DHT22;22958;51.232;6.826;2022-07-10T05:01:02;14.10;99.90
37050;DHT22;22958;51.232;6.826;2022-07-10T05:03:28;14.10;99.90
37050;DHT22;22958;51.232;6.826;2022-07-10T05:05:54;14.20;99.90
37050;DHT22;22958;51.232;6.826;2022-07-10T05:08:19;14.30;99.90
37050;DHT22;22958;51.232;6.826;2022-07-10T05:10:45;14.40;99.90
37050;DHT22;22958;51.232;6.826;2022-07-10T05:13:11;14.40;99.90
37050;DHT22;22958;51.232;6.826;2022-07-10T05:15:37;14.40;99.90
37050;DHT22;22958;51.232;6.826;2022-07-10T05:18:03;14.50;99.90
37050;DHT22;22958;51.232;6.826;2022-07-10T05:20:28;14.60;99.90
37050;DHT22;22958;51.232;6.826;2022-07-10T05:22:54;14.60;99.90
37050;DHT22;22958;51.232;6.826;2022-07-10T05:25:19;14.70;99.90
37050;DHT22;22958;51.232;6.826;2022-07-10T05:27:45;14.80;99.90
37050;DHT22;22958;51.232;6.826;2022-07-10T05:30:10;14.90;99.90
37050;DHT22;22958;51.232;6.826;2022-07-10T05:32:43;15.00;99.90
37050;DHT22;22958;51.232;6.826;2022-07-10T05:35:08;15.10;99.90
37050;DHT22;22958;51.232;6.826;2022-07-10T05:37:34;15.10;99.90
37050;DHT22;22958;51.232;6.826;2022-07-10T05:39:59;15.20;99.90
37050;DHT22;22958;51.232;6.826;2022-07-10T05:42:25;15.30;99.90
37050;DHT22;22958;51.232;6.826;2022-07-10T05:44:50;15.30;99.90
37050;DHT22;22958;51.232;6.826;2022-07-10T05:47:16;15.30;99.90
37050;DHT22;22958;51.232;6.826;2022-07-10T05:49:41;15.40;99.90
37050;DHT22;22958;51.232;6.826;2022-07-10T05:52:07;15.30;99.90
37050;DHT22;22958;51.232;6.826;2022-07-10T05:54:33;15.30;99.90
37050;DHT22;22958;51.232;6.826;2022-07-10T05:56:58;15.30;99.90
37050;DHT22;22958;51.232;6.826;2022-07-10T05:59:24;15.30;99.90
37050;DHT22;22958;51.232;6.826;2022-07-10T06:01:49;15.50;99.90
37050;DHT22;22958;51.232;6.826;2022-07-10T06:04:15;15.60;99.90
37050;DHT22;22958;51.232;6.826;2022-07-10T06:06:40;15.50;99.90
37050;DHT22;22958;51.232;6.826;2022-07-10T06:09:06;15.50;99.90
37050;DHT22;22958;51.232;6.826;2022-07-10T06:11:31;15.60;99.90
37050;DHT22;22958;51.232;6.826;2022-07-10T06:13:57;15.80;99.90
37050;DHT22;22958;51.232;6.826;2022-07-10T06:16:22;15.70;99.90
37050;DHT22;22958;51.232;6.826;2022-07-10T06:18:48;15.50;99.90
37050;DHT22;22958;51.232;6.826;2022-07-10T06:21:14;15.60;99.90
37050;DHT22;22958;51.232;6.826;2022-07-10T06:23:39;15.50;99.90
37050;DHT22;22958;51.232;6.826;2022-07-10T06:26:05;15.50;99.90
37050;DHT22;22958;51.232;6.826;2022-07-10T06:28:30;15.50;99.90
37050;DHT22;22958;51.232;6.826;2022-07-10T06:30:56;15.50;99.90
37050;DHT22;22958;51.232;6.826;2022-07-10T06:33:21;15.50;99.90
37050;DHT22;22958;51.232;6.826;2022-07-10T06:35:47;15.50;99.90
37050;DHT22;22958;51.232;6.826;2022-07-10T06:38:12;15.50;99.90
37050;DHT22;22958;51.232;6.826;2022-07-10T06:40:38;15.40;99.90
37050;DHT22;22958;51.232;6.826;2022-07-10T06:43:04;15.50;99.90
37050;DHT22;22958;51.232;6.826;2022-07-10T06:45:30;15.60;99.90
37050;DHT22;22958;51.232;6.826;2022-07-10T06:47:55;15.60;99.90
37050;DHT22;22958;51.232;6.826;2022-07-10T06:50:22;15.70;99.90
37050;DHT22;22958;51.232;6.826;2022-07-10T06:52:48;15.80;99.90
37050;DHT22;22958;51.232;6.826;2022-07-10T06:55:14;15.80;99.90
37050;DHT22;22958;51.232;6.826;2022-07-10T06:57:40;15.70;99.90
37050;DHT22;22958;51.232;6.826;2022-07-10T07:00:06;15.70;99.90
37050;DHT22;22958;51.232;6.826;2022-07-10T07:02:32;15.60;99.90
37050;DHT22;22958;51.232;6.826;2022-07-10T07:04:58;15.60;99.90
37050;DHT22;22958;51.232;6.826;2022-07-10T07:07:23;15.70;99.90
37050;DHT22;22958;51.232;6.826;2022-07-10T07:09:49;15.80;99.90
37050;DHT22;22958;51.232;6.826;2022-07-10T07:12:17;15.70;99.90
37050;DHT22;22958;51.232;6.826;2022-07-10T07:14:44;15.70;99.90
37050;DHT22;22958;51.232;6.826;2022-07-10T07:17:09;15.70;99.90
37050;DHT22;22958;51.232;6.826;2022-07-10T07:19:37;15.80;99.90
37050;DHT22;22958;51.232;6.826;2022-07-10T07:22:23;15.70;99.90
37050;DHT22;22958;51.232;6.826;2022-07-10T07:25:08;15.60;99.90
37050;DHT22;22958;51.232;6.826;2022-07-10T07:27:34;15.90;99.90
37050;DHT22;22958;51.232;6.826;2022-07-10T07:30:08;16.00;99.90
37050;DHT22;22958;51.232;6.826;2022-07-10T07:32:36;16.10;99.90
37050;DHT22;22958;51.232;6.826;2022-07-10T07:35:02;16.20;99.90
37050;DHT22;22958;51.232;6.826;2022-07-10T07:37:42;16.00;99.90
37050;DHT22;22958;51.232;6.826;2022-07-10T07:40:09;15.90;99.90
37050;DHT22;22958;51.232;6.826;2022-07-10T07:42:36;15.60;99.90
37050;DHT22;22958;51.232;6.826;2022-07-10T07:45:01;15.50;99.90
37050;DHT22;22958;51.232;6.826;2022-07-10T07:47:27;15.40;99.90
37050;DHT22;22958;51.232;6.826;2022-07-10T07:49:53;15.60;99.90
37050;DHT22;22958;51.232;6.826;2022-07-10T07:52:18;15.70;99.90
37050;DHT22;22958;51.232;6.826;2022-07-10T07:54:44;15.70;99.90
37050;DHT22;22958;51.232;6.826;2022-07-10T07:57:10;15.60;99.90
37050;DHT22;22958;51.232;6.826;2022-07-10T07:59:36;15.30;99.90
37050;DHT22;22958;51.232;6.826;2022-07-10T08:02:01;15.10;99.90
37050;DHT22;22958;51.232;6.826;2022-07-10T08:04:27;15.20;99.90
37050;DHT22;22958;51.232;6.826;2022-07-10T08:06:52;15.20;99.90
37050;DHT22;22958;51.232;6.826;2022-07-10T08:09:19;15.30;99.90
37050;DHT22;22958;51.232;6.826;2022-07-10T08:11:45;15.30;99.90
37050;DHT22;22958;51.232;6.826;2022-07-10T08:14:11;15.20;99.90
37050;DHT22;22958;51.232;6.826;2022-07-10T08:16:37;15.20;99.90
37050;DHT22;22958;51.232;6.826;2022-07-10T08:19:03;15.30;99.90
37050;DHT22;22958;51.232;6.826;2022-07-10T08:21:28;15.30;99.90
37050;DHT22;22958;51.232;6.826;2022-07-10T08:23:54;15.30;99.90
37050;DHT22;22958;51.232;6.826;2022-07-10T08:26:19;15.20;99.90
37050;DHT22;22958;51.232;6.826;2022-07-10T08:28:45;15.20;99.90
37050;DHT22;22958;51.232;6.826;2022-07-10T08:31:11;15.10;99.90
37050;DHT22;22958;51.232;6.826;2022-07-10T08:33:36;15.10;99.90
37050;DHT22;22958;51.232;6.826;2022-07-10T08:36:02;15.10;99.90
37050;DHT22;22958;51.232;6.826;2022-07-10T08:38:29;15.10;99.90
37050;DHT22;22958;51.232;6.826;2022-07-10T08:40:56;14.70;99.90
37050;DHT22;22958;51.232;6.826;2022-07-10T08:43:23;14.70;99.90
37050;DHT22;22958;51.232;6.826;2022-07-10T08:45:50;14.90;99.90
37050;DHT22;22958;51.232;6.826;2022-07-10T08:48:22;14.80;99.90
37050;DHT22;22958;51.232;6.826;2022-07-10T08:50:51;14.80;99.90
37050;DHT22;22958;51.232;6.826;2022-07-10T08:53:30;15.00;99.90
37050;DHT22;22958;51.232;6.826;2022-07-10T08:55:57;14.90;99.90
37050;DHT22;22958;51.232;6.826;2022-07-10T08:58:23;15.20;99.90
37050;DHT22;22958;51.232;6.826;2022-07-10T09:00:49;15.20;99.90
37050;DHT22;22958;51.232;6.826;2022-07-10T09:03:15;15.10;99.90
37050;DHT22;22958;51.232;6.826;2022-07-10T09:05:40;15.50;99.90
37050;DHT22;22958;51.232;6.826;2022-07-10T09:11:26;16.30;99.90
37050;DHT22;22958;51.232;6.826;2022-07-10T09:13:57;16.50;99.90
37050;DHT22;22958;51.232;6.826;2022-07-10T09:16:24;17.00;99.90
37050;DHT22;22958;51.232;6.826;2022-07-10T09:18:50;16.80;99.90
37050;DHT22;22958;51.232;6.826;2022-07-10T09:21:16;16.80;99.90
37050;DHT22;22958;51.232;6.826;2022-07-10T09:23:41;16.90;99.90
37050;DHT22;22958;51.232;6.826;2022-07-10T09:26:07;17.10;99.90
37050;DHT22;22958;51.232;6.826;2022-07-10T09:28:33;17.00;99.90
37050;DHT22;22958;51.232;6.826;2022-07-10T09:30:58;17.30;99.90
37050;DHT22;22958;51.232;6.826;2022-07-10T09:43:45;17.30;99.90
37050;DHT22;22958;51.232;6.826;2022-07-10T09:46:11;16.80;99.90
37050;DHT22;22958;51.232;6.826;2022-07-10T09:48:37;16.50;99.90
37050;DHT22;22958;51.232;6.826;2022-07-10T09:51:05;16.20;99.90
37050;DHT22;22958;51.232;6.826;2022-07-10T09:53:32;16.10;99.90
37050;DHT22;22958;51.232;6.826;2022-07-10T09:56:00;16.10;99.90
37050;DHT22;22958;51.232;6.826;2022-07-10T09:58:28;16.30;99.90
37050;DHT22;22958;51.232;6.826;2022-07-10T10:00:57;16.60;99.90
37050;DHT22;22958;51.232;6.826;2022-07-10T10:03:24;17.10;99.90
37050;DHT22;22958;51.232;6.826;2022-07-10T10:05:58;17.00;99.90
37050;DHT22;22958;51.232;6.826;2022-07-10T10:08:29;17.00;99.90
37050;DHT22;22958;51.232;6.826;2022-07-10T10:10:57;17.50;99.90
37050;DHT22;22958;51.232;6.826;2022-07-10T10:13:27;17.50;99.90
37050;DHT22;22958;51.232;6.826;2022-07-10T10:15:54;17.40;99.90
37050;DHT22;22958;51.232;6.826;2022-07-10T10:18:22;18.00;99.90
37050;DHT22;22958;51.232;6.826;2022-07-10T10:20:49;17.90;99.90
37050;DHT22;22958;51.232;6.826;2022-07-10T10:23:19;17.60;99.90
37050;DHT22;22958;51.232;6.826;2022-07-10T10:25:49;16.90;99.90
37050;DHT22;22958;51.232;6.826;2022-07-10T10:28:16;17.00;99.90
37050;DHT22;22958;51.232;6.826;2022-07-10T10:30:44;16.90;99.90
37050;DHT22;22958;51.232;6.826;2022-07-10T10:35:59;17.00;99.90
37050;DHT22;22958;51.232;6.826;2022-07-10T10:38:37;17.00;99.90
37050;DHT22;22958;51.232;6.826;2022-07-10T10:46:32;16.80;99.90
37050;DHT22;22958;51.232;6.826;2022-07-10T10:49:08;17.10;99.90
37050;DHT22;22958;51.232;6.826;2022-07-10T10:52:08;17.00;99.90
37050;DHT22;22958;51.232;6.826;2022-07-10T10:59:58;17.20;99.90
37050;DHT22;22958;51.232;6.826;2022-07-10T11:02:36;16.80;99.90
37050;DHT22;22958;51.232;6.826;2022-07-10T11:08:02;17.60;99.90
37050;DHT22;22958;51.232;6.826;2022-07-10T11:10:29;17.50;99.90
37050;DHT22;22958;51.232;6.826;2022-07-10T11:13:17;17.30;99.90
37050;DHT22;22958;51.232;6.826;2022-07-10T11:15:49;17.10;99.90
37050;DHT22;22958;51.232;6.826;2022-07-10T11:18:21;17.20;99.90
37050;DHT22;22958;51.232;6.826;2022-07-10T11:20:54;17.20;99.90
37050;DHT22;22958;51.232;6.826;2022-07-10T11:26:29;17.20;99.90
37050;DHT22;22958;51.232;6.826;2022-07-10T11:29:02;17.20;99.90
37050;DHT22;22958;51.232;6.826;2022-07-10T11:31:28;17.20;99.90
37050;DHT22;22958;51.232;6.826;2022-07-10T11:33:56;16.90;99.90
37050;DHT22;22958;51.232;6.826;2022-07-10T11:36:24;16.80;99.90
37050;DHT22;22958;51.232;6.826;2022-07-10T11:39:01;16.60;99.90
37050;DHT22;22958;51.232;6.826;2022-07-10T11:41:28;16.60;99.90
37050;DHT22;22958;51.232;6.826;2022-07-10T11:43:59;16.60;99.90
37050;DHT22;22958;51.232;6.826;2022-07-10T11:46:26;16.60;99.90
37050;DHT22;22958;51.232;6.826;2022-07-10T11:48:53;16.80;99.90
37050;DHT22;22958;51.232;6.826;2022-07-10T11:51:23;16.90;99.90
37050;DHT22;22958;51.232;6.826;2022-07-10T11:54:04;16.90;99.90
37050;DHT22;22958;51.232;6.826;2022-07-10T11:56:34;17.20;99.90
37050;DHT22;22958;51.232;6.826;2022-07-10T12:01:29;18.10;99.90
37050;DHT22;22958;51.232;6.826;2022-07-10T12:04:00;17.80;99.90
37050;DHT22;22958;51.232;6.826;2022-07-10T12:06:26;17.70;99.90
37050;DHT22;22958;51.232;6.826;2022-07-10T12:08:52;17.60;99.90
37050;DHT22;22958;51.232;6.826;2022-07-10T12:11:20;17.60;99.90
37050;DHT22;22958;51.232;6.826;2022-07-10T12:13:47;17.40;99.90
37050;DHT22;22958;51.232;6.826;2022-07-10T12:16:13;17.20;99.90
37050;DHT22;22958;51.232;6.826;2022-07-10T12:18:40;17.20;99.90
37050;DHT22;22958;51.232;6.826;2022-07-10T12:21:08;17.10;99.90
37050;DHT22;22958;51.232;6.826;2022-07-10T12:23:34;17.10;99.90
37050;DHT22;22958;51.232;6.826;2022-07-10T12:26:04;16.90;99.90
37050;DHT22;22958;51.232;6.826;2022-07-10T12:28:50;16.70;99.90
37050;DHT22;22958;51.232;6.826;2022-07-10T12:31:26;16.70;99.90
37050;DHT22;22958;51.232;6.826;2022-07-10T12:33:56;16.80;99.90
37050;DHT22;22958;51.232;6.826;2022-07-10T12:36:40;16.80;99.90
37050;DHT22;22958;51.232;6.826;2022-07-10T12:39:06;16.70;99.90
37050;DHT22;22958;51.232;6.826;2022-07-10T12:41:31;16.70;99.90
37050;DHT22;22958;51.232;6.826;2022-07-10T12:43:57;16.70;99.90
37050;DHT22;22958;51.232;6.826;2022-07-10T12:46:23;16.80;99.90
37050;DHT22;22958;51.232;6.826;2022-07-10T12:49:08;16.80;99.90
37050;DHT22;22958;51.232;6.826;2022-07-10T12:51:44;16.90;99.90
37050;DHT22;22958;51.232;6.826;2022-07-10T12:54:33;17.20;99.90
37050;DHT22;22958;51.232;6.826;2022-07-10T12:56:59;17.40;99.90
37050;DHT22;22958;51.232;6.826;2022-07-10T12:59:28;17.60;99.90
37050;DHT22;22958;51.232;6.826;2022-07-10T13:01:54;17.90;99.90
37050;DHT22;22958;51.232;6.826;2022-07-10T13:04:23;18.60;99.90
37050;DHT22;22958;51.232;6.826;2022-07-10T13:06:50;19.70;99.90
37050;DHT22;22958;51.232;6.826;2022-07-10T13:09:24;21.10;99.90
37050;DHT22;22958;51.232;6.826;2022-07-10T13:11:53;22.70;99.90
37050;DHT22;22958;51.232;6.826;2022-07-10T13:14:20;23.80;99.90
37050;DHT22;22958;51.232;6.826;2022-07-10T13:16:46;23.50;99.90
37050;DHT22;22958;51.232;6.826;2022-07-10T13:19:11;22.70;99.90
37050;DHT22;22958;51.232;6.826;2022-07-10T13:21:37;23.10;99.90
37050;DHT22;22958;51.232;6.826;2022-07-10T13:24:03;21.30;99.90
37050;DHT22;22958;51.232;6.826;2022-07-10T13:26:29;21.50;99.90
37050;DHT22;22958;51.232;6.826;2022-07-10T13:28:56;20.70;99.90
37050;DHT22;22958;51.232;6.826;2022-07-10T13:31:22;20.40;99.90
37050;DHT22;22958;51.232;6.826;2022-07-10T13:33:47;19.90;99.90
37050;DHT22;22958;51.232;6.826;2022-07-10T13:36:13;19.70;99.90
37050;DHT22;22958;51.232;6.826;2022-07-10T13:38:39;21.60;99.90
37050;DHT22;22958;51.232;6.826;2022-07-10T13:41:05;21.80;99.90
37050;DHT22;22958;51.232;6.826;2022-07-10T13:43:30;21.80;99.90
37050;DHT22;22958;51.232;6.826;2022-07-10T13:46:00;22.50;99.90
37050;DHT22;22958;51.232;6.826;2022-07-10T13:48:26;23.00;99.90
37050;DHT22;22958;51.232;6.826;2022-07-10T13:50:52;22.30;99.90
37050;DHT22;22958;51.232;6.826;2022-07-10T13:53:18;21.40;99.90
37050;DHT22;22958;51.232;6.826;2022-07-10T13:55:44;20.90;99.90
37050;DHT22;22958;51.232;6.826;2022-07-10T13:58:11;21.10;99.90
37050;DHT22;22958;51.232;6.826;2022-07-10T14:00:37;20.60;99.90
37050;DHT22;22958;51.232;6.826;2022-07-10T14:03:03;20.50;99.90
37050;DHT22;22958;51.232;6.826;2022-07-10T14:05:29;20.30;99.90
37050;DHT22;22958;51.232;6.826;2022-07-10T14:07:55;20.10;99.90
37050;DHT22;22958;51.232;6.826;2022-07-10T14:10:21;20.30;99.90
37050;DHT22;22958;51.232;6.826;2022-07-10T14:12:47;20.30;99.90
37050;DHT22;22958;51.232;6.826;2022-07-10T14:15:12;20.00;99.90
37050;DHT22;22958;51.232;6.826;2022-07-10T14:17:38;20.00;99.90
37050;DHT22;22958;51.232;6.826;2022-07-10T14:20:04;20.00;99.90
37050;DHT22;22958;51.232;6.826;2022-07-10T14:22:30;20.30;99.90
37050;DHT22;22958;51.232;6.826;2022-07-10T14:24:56;20.00;99.90
37050;DHT22;22958;51.232;6.826;2022-07-10T14:27:24;20.10;99.90
37050;DHT22;22958;51.232;6.826;2022-07-10T14:29:50;19.90;99.90
37050;DHT22;22958;51.232;6.826;2022-07-10T14:32:16;19.90;99.90
37050;DHT22;22958;51.232;6.826;2022-07-10T14:34:41;19.80;99.90
37050;DHT22;22958;51.232;6.826;2022-07-10T14:37:07;19.50;99.90
37050;DHT22;22958;51.232;6.826;2022-07-10T14:39:32;19.50;99.90
37050;DHT22;22958;51.232;6.826;2022-07-10T14:41:58;19.40;99.90
37050;DHT22;22958;51.232;6.826;2022-07-10T14:44:24;19.30;99.90
37050;DHT22;22958;51.232;6.826;2022-07-10T14:46:49;19.40;99.90
37050;DHT22;22958;51.232;6.826;2022-07-10T14:49:15;19.30;99.90
37050;DHT22;22958;51.232;6.826;2022-07-10T14:51:40;19.30;99.90
37050;DHT22;22958;51.232;6.826;2022-07-10T14:54:07;19.40;99.90
37050;DHT22;22958;51.232;6.826;2022-07-10T14:56:33;19.50;99.90
37050;DHT22;22958;51.232;6.826;2022-07-10T14:58:58;19.60;99.90
37050;DHT22;22958;51.232;6.826;2022-07-10T15:01:24;19.50;99.90
37050;DHT22;22958;51.232;6.826;2022-07-10T15:03:50;19.60;99.90
37050;DHT22;22958;51.232;6.826;2022-07-10T15:06:15;19.70;99.90
37050;DHT22;22958;51.232;6.826;2022-07-10T15:08:42;19.80;99.90
37050;DHT22;22958;51.232;6.826;2022-07-10T15:11:07;19.80;99.90
37050;DHT22;22958;51.232;6.826;2022-07-10T15:13:33;19.80;99.90
37050;DHT22;22958;51.232;6.826;2022-07-10T15:15:58;19.90;99.90
37050;DHT22;22958;51.232;6.826;2022-07-10T15:18:25;20.00;99.90
37050;DHT22;22958;51.232;6.826;2022-07-10T15:20:51;20.10;99.90
37050;DHT22;22958;51.232;6.826;2022-07-10T15:23:16;20.30;99.90
37050;DHT22;22958;51.232;6.826;2022-07-10T15:25:42;20.50;99.90
37050;DHT22;22958;51.232;6.826;2022-07-10T15:28:08;20.60;99.90
37050;DHT22;22958;51.232;6.826;2022-07-10T15:30:35;20.30;99.90
37050;DHT22;22958;51.232;6.826;2022-07-10T15:33:01;20.40;99.90
37050;DHT22;22958;51.232;6.826;2022-07-10T15:35:27;20.40;99.90
37050;DHT22;22958;51.232;6.826;2022-07-10T15:37:52;20.40;99.90
37050;DHT22;22958;51.232;6.826;2022-07-10T15:40:18;20.20;99.90
37050;DHT22;22958;51.232;6.826;2022-07-10T15:42:43;20.10;99.90
37050;DHT22;22958;51.232;6.826;2022-07-10T15:45:09;20.10;99.90
37050;DHT22;22958;51.232;6.826;2022-07-10T15:47:35;20.20;99.90
37050;DHT22;22958;51.232;6.826;2022-07-10T15:50:01;20.20;99.90
37050;DHT22;22958;51.232;6.826;2022-07-10T15:52:27;20.20;99.90
37050;DHT22;22958;51.232;6.826;2022-07-10T15:54:52;20.30;99.90
37050;DHT22;22958;51.232;6.826;2022-07-10T15:57:18;20.30;99.90
37050;DHT22;22958;51.232;6.826;2022-07-10T15:59:43;20.30;99.90
37050;DHT22;22958;51.232;6.826;2022-07-10T16:02:09;20.40;99.90
37050;DHT22;22958;51.232;6.826;2022-07-10T16:04:36;20.50;99.90